createdAt,value
2017-08-28T00:01:02.541Z,100974.86
2017-08-28T00:02:09.315Z,100975.94
2017-08-28T00:03:16.433Z,100976.05
2017-08-28T00:04:22.300Z,100971.39
2017-08-28T00:05:28.388Z,100973.56
2017-08-28T00:06:34.406Z,100971.95
2017-08-28T00:07:40.529Z,100973.38
2017-08-28T00:08:46.379Z,100978.23
2017-08-28T00:09:52.424Z,100978.81
2017-08-28T00:10:58.304Z,100973.88
2017-08-28T00:12:04.342Z,100971.99
2017-08-28T00:13:10.433Z,100971.52
2017-08-28T00:14:16.759Z,100978.25
2017-08-28T00:15:22.827Z,100979.53
2017-08-28T00:16:28.890Z,100979.42
2017-08-28T00:17:34.935Z,100980.60
2017-08-28T00:18:40.987Z,100983.79
2017-08-28T00:19:47.023Z,100977.48
2017-08-28T00:20:53.071Z,100973.28
2017-08-28T00:21:59.131Z,100978.47
2017-08-28T00:23:05.163Z,100975.78
2017-08-28T00:24:11.232Z,100973.09
2017-08-28T00:25:17.270Z,100978.75
2017-08-28T00:26:23.312Z,100976.80
2017-08-28T00:27:29.378Z,100972.41
2017-08-28T00:28:35.450Z,100968.91
2017-08-28T00:29:41.628Z,100965.25
2017-08-28T00:30:48.570Z,100970.16
2017-08-28T00:31:54.670Z,100967.17
2017-08-28T00:33:00.000Z,100969.73
2017-08-28T00:34:06.084Z,100970.14
2017-08-28T00:35:12.236Z,100969.01
2017-08-28T00:36:18.307Z,100971.48
2017-08-28T00:37:24.372Z,100969.91
2017-08-28T00:38:30.510Z,100970.00
2017-08-28T00:39:36.971Z,100961.61
2017-08-28T00:40:42.679Z,100967.82
2017-08-28T00:41:49.021Z,100966.50
2017-08-28T00:42:55.112Z,100970.47
2017-08-28T00:44:01.178Z,100967.30
2017-08-28T00:45:07.254Z,100966.35
2017-08-28T00:46:13.695Z,100966.83
2017-08-28T00:47:19.603Z,100965.55
2017-08-28T00:48:24.934Z,100964.97
2017-08-28T00:49:31.931Z,100960.72
2017-08-28T00:50:38.019Z,100965.06
2017-08-28T00:51:44.069Z,100965.16
2017-08-28T00:52:50.526Z,100970.71
2017-08-28T00:53:56.645Z,100965.92
2017-08-28T00:55:03.714Z,100971.21
2017-08-28T00:56:09.899Z,100967.09
2017-08-28T00:57:15.935Z,100964.61
2017-08-28T00:58:21.996Z,100971.36
2017-08-28T00:59:28.942Z,100961.40
2017-08-28T01:00:34.274Z,100969.44
2017-08-28T01:01:40.166Z,100964.69
2017-08-28T01:02:46.231Z,100973.02
2017-08-28T01:03:52.288Z,100975.69
2017-08-28T01:04:58.385Z,100976.02
2017-08-28T01:06:04.436Z,100976.88
2017-08-28T01:07:10.160Z,100978.09
2017-08-28T01:08:16.004Z,100976.45
2017-08-28T01:09:22.962Z,100977.72
2017-08-28T01:10:29.080Z,100977.03
2017-08-28T01:11:35.125Z,100985.22
2017-08-28T01:12:41.243Z,100985.73
2017-08-28T01:13:47.324Z,100986.45
2017-08-28T01:14:53.208Z,100981.26
2017-08-28T01:15:59.377Z,100979.16
2017-08-28T01:17:05.437Z,100977.92
2017-08-28T01:18:13.265Z,100981.39
2017-08-28T01:19:19.711Z,100981.48
2017-08-28T01:20:25.038Z,100981.27
2017-08-28T01:21:30.240Z,100985.87
2017-08-28T01:22:36.360Z,100984.59
2017-08-28T01:23:42.821Z,100982.22
2017-08-28T01:24:49.060Z,100983.54
2017-08-28T01:25:55.118Z,100983.16
2017-08-28T01:27:01.385Z,100985.00
2017-08-28T01:28:07.454Z,100984.64
2017-08-28T01:29:13.584Z,100985.86
2017-08-28T01:30:19.643Z,100984.43
2017-08-28T01:31:26.576Z,100984.55
2017-08-28T01:32:32.710Z,100979.95
2017-08-28T01:33:38.785Z,100982.74
2017-08-28T01:34:44.892Z,100984.97
2017-08-28T01:35:52.588Z,100981.26
2017-08-28T01:36:58.644Z,100983.34
2017-08-28T01:38:04.733Z,100983.52
2017-08-28T01:39:10.858Z,100982.33
2017-08-28T01:40:17.922Z,100981.61
2017-08-28T01:41:23.971Z,100983.55
2017-08-28T01:42:30.049Z,100988.10
2017-08-28T01:43:36.134Z,100983.20
2017-08-28T01:44:42.178Z,100982.55
2017-08-28T01:45:48.321Z,100987.88
2017-08-28T01:46:54.349Z,100987.55
2017-08-28T01:48:00.448Z,100985.83
2017-08-28T01:49:06.474Z,100979.18
2017-08-28T01:50:12.650Z,100982.08
2017-08-28T01:51:18.823Z,100982.66
2017-08-28T01:52:24.892Z,100984.73
2017-08-28T01:53:30.979Z,100984.86
2017-08-28T01:54:37.637Z,100982.73
2017-08-28T01:55:43.674Z,100988.88
2017-08-28T01:56:49.751Z,100987.05
2017-08-28T01:57:56.719Z,100987.17
2017-08-28T01:59:04.909Z,100983.84
2017-08-28T02:00:11.013Z,100984.88
2017-08-28T02:01:16.843Z,100985.34
2017-08-28T02:02:23.567Z,100982.80
2017-08-28T02:03:29.635Z,100987.17
2017-08-28T02:04:36.862Z,100989.78
2017-08-28T02:05:42.897Z,100985.33
2017-08-28T02:06:48.931Z,100992.70
2017-08-28T02:07:55.188Z,100997.27
2017-08-28T02:09:02.893Z,101001.41
2017-08-28T02:10:10.785Z,100999.36
2017-08-28T02:11:17.251Z,101000.76
2017-08-28T02:12:26.070Z,101004.27
2017-08-28T02:13:32.126Z,101000.23
2017-08-28T02:14:38.217Z,101001.50
2017-08-28T02:15:43.750Z,100999.75
2017-08-28T02:16:50.067Z,101003.30
2017-08-28T02:17:56.294Z,101002.68
2017-08-28T02:19:02.368Z,101001.97
2017-08-28T02:20:09.191Z,101005.59
2017-08-28T02:21:15.258Z,101003.50
2017-08-28T02:22:22.152Z,101002.69
2017-08-28T02:23:28.304Z,101002.20
2017-08-28T02:24:34.682Z,101006.98
2017-08-28T02:25:40.766Z,101006.37
2017-08-28T02:26:46.871Z,101004.94
2017-08-28T02:27:52.938Z,101000.70
2017-08-28T02:28:59.031Z,101000.37
2017-08-28T02:30:06.009Z,101008.25
2017-08-28T02:31:12.051Z,101000.05
2017-08-28T02:32:19.303Z,100998.94
2017-08-28T02:33:25.451Z,101000.33
2017-08-28T02:34:32.729Z,100998.43
2017-08-28T02:35:39.451Z,101001.75
2017-08-28T02:36:46.067Z,100993.53
2017-08-28T02:37:52.252Z,100997.38
2017-08-28T02:38:58.639Z,100993.40
2017-08-28T02:40:04.743Z,100998.45
2017-08-28T02:41:10.796Z,100995.36
2017-08-28T02:42:16.852Z,100995.36
2017-08-28T02:43:23.054Z,100996.87
2017-08-28T02:44:29.147Z,100998.54
2017-08-28T02:45:35.210Z,100998.97
2017-08-28T02:46:41.276Z,101003.82
2017-08-28T02:47:47.328Z,101000.92
2017-08-28T02:48:53.363Z,101004.17
2017-08-28T02:49:59.446Z,101003.92
2017-08-28T02:51:05.484Z,101005.13
2017-08-28T02:52:11.592Z,101003.44
2017-08-28T02:53:18.155Z,101008.03
2017-08-28T02:54:25.006Z,101007.25
2017-08-28T02:55:31.849Z,101006.09
2017-08-28T02:56:37.909Z,101007.52
2017-08-28T02:57:43.987Z,101013.31
2017-08-28T02:58:50.040Z,101010.77
2017-08-28T02:59:56.817Z,101013.65
2017-08-28T03:01:02.903Z,101014.98
2017-08-28T03:02:08.953Z,101009.31
2017-08-28T03:03:15.059Z,101009.09
2017-08-28T03:04:21.123Z,101006.84
2017-08-28T03:05:27.212Z,101015.42
2017-08-28T03:06:33.285Z,101012.89
2017-08-28T03:07:40.058Z,101018.06
2017-08-28T03:08:46.771Z,101013.92
2017-08-28T03:09:52.840Z,101016.25
2017-08-28T03:10:58.544Z,101018.98
2017-08-28T03:12:04.718Z,101027.88
2017-08-28T03:13:10.765Z,101018.73
2017-08-28T03:14:16.811Z,101021.31
2017-08-28T03:15:22.881Z,101021.80
2017-08-28T03:16:28.964Z,101021.31
2017-08-28T03:17:35.116Z,101027.05
2017-08-28T03:18:41.162Z,101025.77
2017-08-28T03:19:47.198Z,101021.36
2017-08-28T03:20:53.057Z,101024.23
2017-08-28T03:21:59.143Z,101020.48
2017-08-28T03:23:05.517Z,101022.64
2017-08-28T03:24:11.580Z,101023.80
2017-08-28T03:25:17.623Z,101026.39
2017-08-28T03:26:23.711Z,101021.06
2017-08-28T03:27:30.444Z,101025.72
2017-08-28T03:28:37.403Z,101025.18
2017-08-28T03:29:44.239Z,101021.73
2017-08-28T03:30:50.317Z,101027.13
2017-08-28T03:31:56.398Z,101021.44
2017-08-28T03:33:02.511Z,101019.92
2017-08-28T03:34:08.548Z,101028.36
2017-08-28T03:35:14.421Z,101028.17
2017-08-28T03:36:20.092Z,101030.86
2017-08-28T03:37:25.936Z,101030.92
2017-08-28T03:38:31.911Z,101031.89
2017-08-28T03:39:37.799Z,101031.44
2017-08-28T03:40:43.663Z,101033.11
2017-08-28T03:41:49.686Z,101036.83
2017-08-28T03:42:55.532Z,101032.28
2017-08-28T03:44:01.416Z,101033.95
2017-08-28T03:45:07.279Z,101038.25
2017-08-28T03:46:13.163Z,101044.05
2017-08-28T03:47:19.002Z,101046.25
2017-08-28T03:48:24.875Z,101037.85
2017-08-28T03:49:30.767Z,101049.66
2017-08-28T03:50:36.715Z,101036.11
2017-08-28T03:51:42.586Z,101046.68
2017-08-28T03:52:48.452Z,101047.11
2017-08-28T03:53:54.398Z,101043.70
2017-08-28T03:55:00.283Z,101045.31
2017-08-28T03:56:06.165Z,101042.21
2017-08-28T03:57:12.010Z,101050.41
2017-08-28T03:58:18.783Z,101045.42
2017-08-28T03:59:25.570Z,101047.84
2017-08-28T04:00:31.508Z,101047.23
2017-08-28T04:01:38.400Z,101045.92
2017-08-28T04:02:45.186Z,101050.31
2017-08-28T04:03:51.129Z,101049.53
2017-08-28T04:04:58.388Z,101052.62
2017-08-28T04:06:04.878Z,101050.23
2017-08-28T04:07:11.396Z,101051.19
2017-08-28T04:08:17.255Z,101046.79
2017-08-28T04:09:23.320Z,101050.72
2017-08-28T04:10:29.520Z,101051.78
2017-08-28T04:11:35.575Z,101041.57
2017-08-28T04:12:41.627Z,101045.62
2017-08-28T04:13:47.685Z,101042.33
2017-08-28T04:14:53.746Z,101045.98
2017-08-28T04:15:59.811Z,101040.03
2017-08-28T04:17:05.930Z,101047.13
2017-08-28T04:18:13.071Z,101050.51
2017-08-28T04:19:18.915Z,101044.67
2017-08-28T04:20:25.891Z,101048.66
2017-08-28T04:21:31.979Z,101044.20
2017-08-28T04:22:39.355Z,101048.50
2017-08-28T04:23:45.926Z,101044.75
2017-08-28T04:24:52.570Z,101045.77
2017-08-28T04:25:59.514Z,101049.19
2017-08-28T04:27:06.327Z,101050.70
2017-08-28T04:28:29.002Z,101051.28
2017-08-28T04:29:35.035Z,101049.64
2017-08-28T04:30:41.031Z,101051.50
2017-08-28T04:31:46.876Z,101047.33
2017-08-28T04:32:53.728Z,101050.72
2017-08-28T04:33:59.810Z,101047.37
2017-08-28T04:35:05.862Z,101047.37
2017-08-28T04:36:12.840Z,101049.56
2017-08-28T04:37:18.900Z,101053.61
2017-08-28T04:38:25.932Z,101050.59
2017-08-28T04:39:31.961Z,101057.56
2017-08-28T04:40:38.120Z,101061.48
2017-08-28T04:41:47.084Z,101057.89
2017-08-28T04:42:55.111Z,101056.92
2017-08-28T04:44:04.541Z,101053.82
2017-08-28T04:45:11.311Z,101058.69
2017-08-28T04:46:19.294Z,101055.09
2017-08-28T04:47:25.334Z,101054.98
2017-08-28T04:48:31.414Z,101058.91
2017-08-28T04:49:37.522Z,101056.08
2017-08-28T04:50:43.573Z,101049.83
2017-08-28T04:51:50.577Z,101053.72
2017-08-28T04:52:57.447Z,101047.54
2017-08-28T04:54:03.479Z,101052.31
2017-08-28T04:55:09.580Z,101053.16
2017-08-28T04:56:15.624Z,101050.41
2017-08-28T04:57:21.658Z,101050.80
2017-08-28T04:58:28.172Z,101056.05
2017-08-28T04:59:34.241Z,101051.59
2017-08-28T05:00:40.335Z,101053.56
2017-08-28T05:01:46.408Z,101055.60
2017-08-28T05:02:52.517Z,101055.19
2017-08-28T05:03:59.126Z,101060.54
2017-08-28T05:05:05.185Z,101058.20
2017-08-28T05:06:11.284Z,101062.80
2017-08-28T05:07:17.355Z,101056.73
2017-08-28T05:08:23.600Z,101057.75
2017-08-28T05:09:29.646Z,101052.76
2017-08-28T05:10:35.738Z,101053.33
2017-08-28T05:11:42.129Z,101053.33
2017-08-28T05:12:48.186Z,101052.52
2017-08-28T05:13:54.302Z,101055.52
2017-08-28T05:15:00.367Z,101060.27
2017-08-28T05:16:06.495Z,101050.44
2017-08-28T05:17:12.602Z,101056.84
2017-08-28T05:18:18.670Z,101050.15
2017-08-28T05:19:24.539Z,101054.36
2017-08-28T05:20:30.587Z,101056.41
2017-08-28T05:21:36.656Z,101056.31
2017-08-28T05:22:42.735Z,101058.80
2017-08-28T05:23:48.791Z,101058.17
2017-08-28T05:24:54.853Z,101060.08
2017-08-28T05:26:00.901Z,101065.16
2017-08-28T05:27:06.934Z,101057.11
2017-08-28T05:28:13.786Z,101057.34
2017-08-28T05:29:19.789Z,101059.98
2017-08-28T05:30:25.845Z,101062.59
2017-08-28T05:31:31.900Z,101055.95
2017-08-28T05:32:37.954Z,101058.05
2017-08-28T05:33:44.056Z,101054.48
2017-08-28T05:34:50.211Z,101060.45
2017-08-28T05:35:57.587Z,101055.90
2017-08-28T05:37:03.994Z,101058.73
2017-08-28T05:38:10.462Z,101055.45
2017-08-28T05:39:16.778Z,101054.44
2017-08-28T05:40:24.116Z,101059.12
2017-08-28T05:41:30.293Z,101060.12
2017-08-28T05:42:36.455Z,101062.09
2017-08-28T05:43:42.698Z,101062.27
2017-08-28T05:44:48.762Z,101063.84
2017-08-28T05:45:54.829Z,101058.73
2017-08-28T05:47:00.884Z,101066.26
2017-08-28T05:48:07.629Z,101060.20
2017-08-28T05:49:13.698Z,101057.75
2017-08-28T05:50:19.767Z,101054.41
2017-08-28T05:51:25.795Z,101063.33
2017-08-28T05:52:31.672Z,101063.54
2017-08-28T05:53:37.794Z,101059.70
2017-08-28T05:54:43.899Z,101058.53
2017-08-28T05:55:49.994Z,101060.63
2017-08-28T05:56:56.095Z,101061.22
2017-08-28T05:58:02.169Z,101058.65
2017-08-28T05:59:08.227Z,101056.15
2017-08-28T06:00:13.979Z,101061.05
2017-08-28T06:01:28.117Z,101061.53
2017-08-28T06:02:37.584Z,101059.08
2017-08-28T06:03:44.610Z,101061.34
2017-08-28T06:04:54.641Z,101059.60
2017-08-28T06:06:03.184Z,101063.17
2017-08-28T06:07:11.025Z,101061.73
2017-08-28T06:08:17.248Z,101054.58
2017-08-28T06:09:23.428Z,101058.91
2017-08-28T06:10:29.505Z,101060.87
2017-08-28T06:11:35.876Z,101060.17
2017-08-28T06:12:42.983Z,101060.72
2017-08-28T06:13:49.053Z,101058.89
2017-08-28T06:14:55.096Z,101060.66
2017-08-28T06:16:01.123Z,101068.11
2017-08-28T06:17:07.187Z,101069.52
2017-08-28T06:18:13.216Z,101064.84
2017-08-28T06:19:19.381Z,101059.23
2017-08-28T06:20:25.419Z,101061.41
2017-08-28T06:21:31.452Z,101065.59
2017-08-28T06:22:37.517Z,101061.95
2017-08-28T06:23:43.689Z,101059.00
2017-08-28T06:24:49.823Z,101060.45
2017-08-28T06:25:55.950Z,101056.41
2017-08-28T06:27:03.841Z,101060.30
2017-08-28T06:28:10.011Z,101055.88
2017-08-28T06:29:16.086Z,101056.81
2017-08-28T06:30:23.041Z,101054.56
2017-08-28T06:31:31.425Z,101060.55
2017-08-28T06:32:38.144Z,101060.83
2017-08-28T06:33:44.268Z,101059.83
2017-08-28T06:34:50.335Z,101060.27
2017-08-28T06:35:56.404Z,101065.42
2017-08-28T06:37:02.465Z,101065.14
2017-08-28T06:38:08.496Z,101063.95
2017-08-28T06:39:15.708Z,101064.35
2017-08-28T06:40:22.784Z,101063.70
2017-08-28T06:41:29.495Z,101062.24
2017-08-28T06:42:35.796Z,101064.25
2017-08-28T06:43:42.382Z,101061.73
2017-08-28T06:44:49.697Z,101057.69
2017-08-28T06:45:55.761Z,101063.17
2017-08-28T06:47:02.171Z,101064.46
2017-08-28T06:48:09.046Z,101064.67
2017-08-28T06:49:16.019Z,101066.35
2017-08-28T06:50:22.831Z,101061.77
2017-08-28T06:51:29.083Z,101071.32
2017-08-28T06:52:35.110Z,101072.96
2017-08-28T06:53:41.271Z,101067.61
2017-08-28T06:54:47.366Z,101072.20
2017-08-28T06:55:53.427Z,101072.31
2017-08-28T06:56:59.513Z,101073.95
2017-08-28T06:58:05.560Z,101072.31
2017-08-28T06:59:11.590Z,101075.48
2017-08-28T07:00:17.679Z,101072.50
2017-08-28T07:01:23.725Z,101076.63
2017-08-28T07:02:29.779Z,101070.69
2017-08-28T07:03:35.816Z,101082.09
2017-08-28T07:04:41.867Z,101080.30
2017-08-28T07:05:48.793Z,101075.54
2017-08-28T07:06:54.835Z,101081.63
2017-08-28T07:08:00.865Z,101078.73
2017-08-28T07:09:06.920Z,101078.11
2017-08-28T07:10:13.067Z,101078.81
2017-08-28T07:11:19.143Z,101081.09
2017-08-28T07:12:26.295Z,101081.28
2017-08-28T07:13:32.372Z,101079.48
2017-08-28T07:14:38.421Z,101081.31
2017-08-28T07:15:46.331Z,101083.30
2017-08-28T07:16:52.519Z,101087.28
2017-08-28T07:17:58.592Z,101085.14
2017-08-28T07:19:04.620Z,101083.06
2017-08-28T07:20:10.707Z,101088.63
2017-08-28T07:21:18.507Z,101084.53
2017-08-28T07:22:24.372Z,101086.36
2017-08-28T07:23:31.043Z,101081.14
2017-08-28T07:24:36.973Z,101081.74
2017-08-28T07:25:43.755Z,101080.84
2017-08-28T07:26:49.882Z,101083.41
2017-08-28T07:27:55.935Z,101073.73
2017-08-28T07:29:01.996Z,101078.66
2017-08-28T07:30:08.062Z,101070.55
2017-08-28T07:31:15.056Z,101076.36
2017-08-28T07:32:21.479Z,101077.76
2017-08-28T07:33:27.406Z,101080.25
2017-08-28T07:34:34.248Z,101082.81
2017-08-28T07:35:40.286Z,101078.61
2017-08-28T07:36:48.261Z,101076.94
2017-08-28T07:37:54.364Z,101081.19
2017-08-28T07:39:00.439Z,101084.09
2017-08-28T07:40:06.293Z,101079.20
2017-08-28T07:41:12.370Z,101081.45
2017-08-28T07:42:18.671Z,101082.00
2017-08-28T07:43:24.758Z,101082.30
2017-08-28T07:44:30.848Z,101082.62
2017-08-28T07:45:36.924Z,101081.34
2017-08-28T07:46:42.961Z,101084.61
2017-08-28T07:47:49.015Z,101080.08
2017-08-28T07:48:55.518Z,101082.75
2017-08-28T07:50:02.451Z,101080.87
2017-08-28T07:51:09.243Z,101080.69
2017-08-28T07:52:15.295Z,101082.38
2017-08-28T07:53:23.877Z,101079.84
2017-08-28T07:54:31.157Z,101083.58
2017-08-28T07:55:37.500Z,101086.30
2017-08-28T07:56:43.602Z,101085.41
2017-08-28T07:57:49.656Z,101090.52
2017-08-28T07:58:55.775Z,101087.38
2017-08-28T08:00:01.834Z,101085.41
2017-08-28T08:01:07.712Z,101091.23
2017-08-28T08:02:19.076Z,101088.43
2017-08-28T08:03:32.995Z,101088.36
2017-08-28T08:04:40.137Z,101086.88
2017-08-28T08:05:46.250Z,101091.69
2017-08-28T08:06:52.402Z,101085.53
2017-08-28T08:07:59.310Z,101080.00
2017-08-28T08:09:06.203Z,101093.30
2017-08-28T08:10:12.301Z,101095.28
2017-08-28T08:11:18.428Z,101089.78
2017-08-28T08:12:25.600Z,101089.00
2017-08-28T08:13:31.703Z,101091.09
2017-08-28T08:14:37.781Z,101088.55
2017-08-28T08:15:44.064Z,101091.97
2017-08-28T08:16:50.201Z,101093.47
2017-08-28T08:17:56.299Z,101094.11
2017-08-28T08:19:02.373Z,101093.34
2017-08-28T08:20:08.520Z,101094.84
2017-08-28T08:21:14.582Z,101096.16
2017-08-28T08:22:21.047Z,101085.38
2017-08-28T08:23:27.236Z,101097.05
2017-08-28T08:24:33.605Z,101092.48
2017-08-28T08:25:40.012Z,101090.55
2017-08-28T08:26:45.882Z,101091.67
2017-08-28T08:27:51.662Z,101088.47
2017-08-28T08:28:58.538Z,101096.33
2017-08-28T08:30:03.875Z,101089.67
2017-08-28T08:31:09.967Z,101086.98
2017-08-28T08:32:16.016Z,101089.59
2017-08-28T08:33:28.323Z,101094.80
2017-08-28T08:34:34.603Z,101094.33
2017-08-28T08:35:41.472Z,101084.59
2017-08-28T08:36:47.618Z,101088.30
2017-08-28T08:37:53.698Z,101087.21
2017-08-28T08:39:00.415Z,101083.69
2017-08-28T08:40:06.341Z,101075.84
2017-08-28T08:41:13.127Z,101082.91
2017-08-28T08:42:19.054Z,101077.72
2017-08-28T08:43:24.962Z,101084.95
2017-08-28T08:44:32.151Z,101082.21
2017-08-28T08:45:39.010Z,101076.02
2017-08-28T08:46:45.105Z,101074.23
2017-08-28T08:47:51.288Z,101075.80
2017-08-28T08:48:57.381Z,101077.08
2017-08-28T08:50:03.528Z,101071.97
2017-08-28T08:51:09.583Z,101071.55
2017-08-28T08:52:15.463Z,101069.48
2017-08-28T08:53:21.360Z,101068.00
2017-08-28T08:54:27.991Z,101072.38
2017-08-28T08:55:34.057Z,101071.42
2017-08-28T08:56:40.138Z,101070.36
2017-08-28T08:57:46.828Z,101072.17
2017-08-28T08:58:53.615Z,101073.09
2017-08-28T08:59:59.697Z,101077.36
2017-08-28T09:01:05.756Z,101070.05
2017-08-28T09:02:12.786Z,101070.68
2017-08-28T09:03:25.203Z,101068.38
2017-08-28T09:04:31.136Z,101070.64
2017-08-28T09:05:37.219Z,101070.24
2017-08-28T09:06:43.323Z,101072.29
2017-08-28T09:07:49.379Z,101070.86
2017-08-28T09:08:55.466Z,101070.38
2017-08-28T09:10:01.541Z,101070.70
2017-08-28T09:11:07.596Z,101075.47
2017-08-28T09:12:13.722Z,101072.42
2017-08-28T09:13:20.650Z,101072.13
2017-08-28T09:14:26.818Z,101071.77
2017-08-28T09:15:33.437Z,101076.66
2017-08-28T09:16:39.337Z,101074.97
2017-08-28T09:17:46.353Z,101076.03
2017-08-28T09:18:52.551Z,101066.47
2017-08-28T09:19:58.684Z,101072.16
2017-08-28T09:21:04.392Z,101074.86
2017-08-28T09:22:10.495Z,101069.88
2017-08-28T09:23:16.395Z,101065.48
2017-08-28T09:24:22.486Z,101064.44
2017-08-28T09:25:30.737Z,101066.37
2017-08-28T09:26:38.204Z,101073.34
2017-08-28T09:27:44.831Z,101075.28
2017-08-28T09:28:51.499Z,101076.69
2017-08-28T09:29:58.496Z,101076.14
2017-08-28T09:31:05.245Z,101076.95
2017-08-28T09:32:11.343Z,101073.97
2017-08-28T09:33:17.460Z,101073.48
2017-08-28T09:34:24.492Z,101074.91
2017-08-28T09:35:30.702Z,101077.60
2017-08-28T09:36:38.540Z,101080.73
2017-08-28T09:37:44.616Z,101081.98
2017-08-28T09:38:51.352Z,101077.09
2017-08-28T09:39:58.158Z,101080.22
2017-08-28T09:41:08.430Z,101077.39
2017-08-28T09:42:17.149Z,101082.91
2017-08-28T09:43:25.660Z,101081.75
2017-08-28T09:44:33.401Z,101082.29
2017-08-28T09:45:41.284Z,101084.12
2017-08-28T09:46:48.984Z,101086.08
2017-08-28T09:48:00.757Z,101085.43
2017-08-28T09:49:12.332Z,101081.98
2017-08-28T09:50:19.137Z,101084.83
2017-08-28T09:51:28.327Z,101079.73
2017-08-28T09:52:36.539Z,101081.89
2017-08-28T09:53:42.829Z,101079.44
2017-08-28T09:54:48.923Z,101078.34
2017-08-28T09:55:54.983Z,101077.77
2017-08-28T09:57:01.152Z,101070.17
2017-08-28T09:58:07.302Z,101069.59
2017-08-28T09:59:13.402Z,101069.95
2017-08-28T10:00:19.472Z,101071.53
2017-08-28T10:01:25.555Z,101072.93
2017-08-28T10:02:32.754Z,101067.39
2017-08-28T10:03:38.836Z,101062.61
2017-08-28T10:04:44.910Z,101065.03
2017-08-28T10:05:50.966Z,101062.90
2017-08-28T10:06:57.022Z,101066.51
2017-08-28T10:08:03.127Z,101068.19
2017-08-28T10:09:09.222Z,101066.70
2017-08-28T10:10:15.304Z,101062.13
2017-08-28T10:11:21.160Z,101064.16
2017-08-28T10:12:28.261Z,101068.66
2017-08-28T10:13:35.738Z,101067.48
2017-08-28T10:14:41.846Z,101062.19
2017-08-28T10:15:47.940Z,101062.78
2017-08-28T10:16:55.718Z,101059.12
2017-08-28T10:18:01.831Z,101059.38
2017-08-28T10:19:08.809Z,101058.06
2017-08-28T10:20:14.870Z,101055.54
2017-08-28T10:21:20.939Z,101051.47
2017-08-28T10:22:26.981Z,101052.80
2017-08-28T10:23:33.099Z,101054.91
2017-08-28T10:24:39.291Z,101050.50
2017-08-28T10:25:45.346Z,101057.05
2017-08-28T10:26:50.686Z,101057.44
2017-08-28T10:27:57.536Z,101053.17
2017-08-28T10:29:03.681Z,101055.28
2017-08-28T10:30:09.736Z,101052.34
2017-08-28T10:31:15.794Z,101050.66
2017-08-28T10:32:21.847Z,101049.09
2017-08-28T10:33:27.912Z,101046.45
2017-08-28T10:34:34.028Z,101053.78
2017-08-28T10:35:40.075Z,101046.29
2017-08-28T10:36:46.122Z,101053.72
2017-08-28T10:37:52.250Z,101049.95
2017-08-28T10:38:58.290Z,101053.11
2017-08-28T10:40:04.376Z,101049.80
2017-08-28T10:41:10.437Z,101055.80
2017-08-28T10:42:16.529Z,101062.86
2017-08-28T10:43:22.602Z,101052.83
2017-08-28T10:44:28.652Z,101053.80
2017-08-28T10:45:34.755Z,101047.93
2017-08-28T10:46:40.809Z,101054.86
2017-08-28T10:47:46.848Z,101058.02
2017-08-28T10:48:52.991Z,101057.16
2017-08-28T10:49:59.031Z,101052.50
2017-08-28T10:51:05.129Z,101053.11
2017-08-28T10:52:11.190Z,101051.03
2017-08-28T10:53:18.201Z,101046.45
2017-08-28T10:54:24.288Z,101051.47
2017-08-28T10:55:30.369Z,101056.03
2017-08-28T10:56:36.516Z,101055.92
2017-08-28T10:57:42.627Z,101048.05
2017-08-28T10:58:48.696Z,101056.58
2017-08-28T10:59:56.467Z,101053.50
2017-08-28T11:01:04.448Z,101049.95
2017-08-28T11:02:13.443Z,101044.69
2017-08-28T11:03:20.729Z,101043.60
2017-08-28T11:04:29.081Z,101047.47
2017-08-28T11:05:39.060Z,101045.83
2017-08-28T11:06:48.518Z,101047.75
2017-08-28T11:07:57.539Z,101045.56
2017-08-28T11:09:04.577Z,101042.23
2017-08-28T11:10:12.616Z,101043.13
2017-08-28T11:11:19.183Z,101049.92
2017-08-28T11:12:25.234Z,101044.50
2017-08-28T11:13:31.323Z,101041.39
2017-08-28T11:14:37.381Z,101043.30
2017-08-28T11:15:43.462Z,101041.54
2017-08-28T11:16:49.516Z,101038.64
2017-08-28T11:17:55.610Z,101039.25
2017-08-28T11:19:01.767Z,101047.99
2017-08-28T11:20:07.827Z,101043.33
2017-08-28T11:21:14.545Z,101041.52
2017-08-28T11:22:20.803Z,101043.94
2017-08-28T11:23:26.985Z,101041.28
2017-08-28T11:24:33.055Z,101032.25
2017-08-28T11:25:39.102Z,101035.89
2017-08-28T11:26:45.169Z,101041.52
2017-08-28T11:27:51.226Z,101036.61
2017-08-28T11:28:57.137Z,101031.64
2017-08-28T11:30:03.227Z,101033.68
2017-08-28T11:31:09.408Z,101028.30
2017-08-28T11:32:15.490Z,101032.93
2017-08-28T11:33:21.538Z,101032.67
2017-08-28T11:34:27.666Z,101031.05
2017-08-28T11:35:33.771Z,101032.39
2017-08-28T11:36:39.854Z,101032.44
2017-08-28T11:37:45.959Z,101027.58
2017-08-28T11:38:52.811Z,101028.85
2017-08-28T11:39:59.203Z,101024.13
2017-08-28T11:41:05.293Z,101029.09
2017-08-28T11:42:11.361Z,101026.13
2017-08-28T11:43:17.418Z,101023.55
2017-08-28T11:44:23.457Z,101015.96
2017-08-28T11:45:29.532Z,101020.52
2017-08-28T11:46:35.566Z,101021.25
2017-08-28T11:47:41.612Z,101017.11
2017-08-28T11:48:47.714Z,101013.88
2017-08-28T11:49:53.787Z,101012.65
2017-08-28T11:50:59.948Z,101016.33
2017-08-28T11:52:05.982Z,101014.02
2017-08-28T11:53:12.015Z,101013.52
2017-08-28T11:54:18.077Z,101013.98
2017-08-28T11:55:24.179Z,101006.05
2017-08-28T11:56:30.301Z,101005.16
2017-08-28T11:57:36.403Z,101001.94
2017-08-28T11:58:42.958Z,101003.06
2017-08-28T11:59:49.027Z,101002.58
2017-08-28T12:00:56.082Z,101002.44
2017-08-28T12:02:02.182Z,100998.69
2017-08-28T12:03:10.677Z,101001.53
2017-08-28T12:04:18.301Z,101000.34
2017-08-28T12:05:25.552Z,101000.97
2017-08-28T12:06:33.552Z,100998.91
2017-08-28T12:07:40.051Z,100999.53
2017-08-28T12:08:47.047Z,100999.14
2017-08-28T12:09:54.268Z,101001.51
2017-08-28T12:11:03.052Z,100999.68
2017-08-28T12:12:10.027Z,100992.69
2017-08-28T12:13:18.853Z,100993.11
2017-08-28T12:14:26.077Z,100988.77
2017-08-28T12:15:33.158Z,100992.61
2017-08-28T12:16:41.276Z,100997.83
2017-08-28T12:17:47.816Z,100998.14
2017-08-28T12:18:56.802Z,100999.36
2017-08-28T12:20:04.096Z,101002.92
2017-08-28T12:21:12.832Z,100996.37
2017-08-28T12:22:20.497Z,100996.58
2017-08-28T12:23:29.312Z,100999.65
2017-08-28T12:24:35.696Z,100996.98
2017-08-28T12:25:42.560Z,100996.55
2017-08-28T12:26:48.633Z,100994.67
2017-08-28T12:27:55.616Z,100993.22
2017-08-28T12:29:02.964Z,100994.22
2017-08-28T12:30:11.803Z,100989.48
2017-08-28T12:31:19.839Z,100985.27
2017-08-28T12:32:27.569Z,100989.09
2017-08-28T12:33:36.407Z,100990.34
2017-08-28T12:34:44.754Z,100986.01
2017-08-28T12:35:51.704Z,100988.30
2017-08-28T12:36:57.818Z,100987.94
2017-08-28T12:38:03.838Z,100982.52
2017-08-28T12:39:09.914Z,100985.90